Gregorytown, New York
Current Conditions -  °F | °C
As of 11:35 PM on Tuesday 21 Oct 2014 (Local Time) from KMSV Reporting Station
Overcast Overcast  
Wind Chill:   Ceiling: 400
Heat Index:   Visibility: 8mi
Dew Point:   Wind: 3mph
Humidity: 100%   Direction: 80°E
Pressure: 29.97"   Gusts: NA
Location:  42.0755°N, 75.0491°W
Report Text: KMSV 220335Z AUTO 08003KT 8SM OVC004 09/09 A2997 RMK AO1
Loading
Personal Weather Stations






























Interactive Weather Map
Tropical Storm Tracking
New forecast layout! Learn more

10-Day Weather Forecast

Advertisements
Track Severe Weather on mobile